createdAt,value
2018-07-19T00:01:59.053Z,22.71
2018-07-19T00:04:28.097Z,22.68
2018-07-19T00:06:57.300Z,22.65
2018-07-19T00:09:26.001Z,22.57
2018-07-19T00:11:54.741Z,22.54
2018-07-19T00:14:23.669Z,22.55
2018-07-19T00:16:52.749Z,22.56
2018-07-19T00:19:21.498Z,22.56
2018-07-19T00:21:50.218Z,22.51
2018-07-19T00:24:19.173Z,22.49
2018-07-19T00:26:48.568Z,22.45
2018-07-19T00:29:17.262Z,22.42
2018-07-19T00:31:46.905Z,22.40
2018-07-19T00:34:15.879Z,22.38
2018-07-19T00:36:44.559Z,22.30
2018-07-19T00:39:13.206Z,22.24
2018-07-19T00:41:45.505Z,22.24
2018-07-19T00:44:16.226Z,22.18
2018-07-19T00:46:45.753Z,22.18
2018-07-19T00:49:15.260Z,22.20
2018-07-19T00:51:43.914Z,22.24
2018-07-19T00:54:12.598Z,22.19
2018-07-19T00:56:41.182Z,22.18
2018-07-19T00:59:10.107Z,22.14
2018-07-19T01:01:38.919Z,22.13
2018-07-19T01:04:07.886Z,22.03
2018-07-19T01:06:36.810Z,22.03
2018-07-19T01:09:08.646Z,21.98
2018-07-19T01:11:37.670Z,22.00
2018-07-19T01:14:06.696Z,21.96
2018-07-19T01:16:35.466Z,21.96
2018-07-19T01:19:04.173Z,21.87
2018-07-19T01:21:33.599Z,21.85
2018-07-19T01:24:03.266Z,21.76
2018-07-19T01:26:33.148Z,21.72
2018-07-19T01:29:04.329Z,21.74
2018-07-19T01:31:33.278Z,21.69
2018-07-19T01:34:02.242Z,21.68
2018-07-19T01:36:31.153Z,21.65
2018-07-19T01:39:00.692Z,21.65
2018-07-19T01:42:40.627Z,21.65
2018-07-19T01:45:10.700Z,21.59
2018-07-19T01:47:39.897Z,21.58
2018-07-19T01:50:09.666Z,21.57
2018-07-19T01:52:38.955Z,21.51
2018-07-19T01:55:08.439Z,21.51
2018-07-19T01:57:37.131Z,21.47
2018-07-19T02:00:06.494Z,21.49
2018-07-19T02:02:35.143Z,21.39
2018-07-19T02:05:04.624Z,21.37
2018-07-19T02:07:35.076Z,21.27
2018-07-19T02:10:04.474Z,21.20
2018-07-19T02:12:33.614Z,21.17
2018-07-19T02:15:02.231Z,21.16
2018-07-19T02:17:31.806Z,21.15
2018-07-19T02:20:00.706Z,21.16
2018-07-19T02:22:30.767Z,21.14
2018-07-19T02:24:59.407Z,21.16
2018-07-19T02:27:28.333Z,21.12
2018-07-19T02:29:57.239Z,21.08
2018-07-19T02:32:26.626Z,21.11
2018-07-19T02:34:57.151Z,21.08
2018-07-19T02:37:26.068Z,21.05
2018-07-19T02:39:54.698Z,20.96
2018-07-19T02:42:23.961Z,20.93
2018-07-19T02:44:52.622Z,20.89
2018-07-19T02:47:21.574Z,20.87
2018-07-19T02:49:50.224Z,20.77
2018-07-19T02:52:18.910Z,20.78
2018-07-19T02:54:47.608Z,20.77
2018-07-19T02:57:16.230Z,20.81
2018-07-19T02:59:45.172Z,20.80
2018-07-19T03:02:16.553Z,20.81
2018-07-19T03:04:46.237Z,20.75
2018-07-19T03:07:15.434Z,20.73
2018-07-19T03:09:45.451Z,20.70
2018-07-19T03:12:15.457Z,20.69
2018-07-19T03:14:44.075Z,20.64
2018-07-19T03:17:12.977Z,20.62
2018-07-19T03:19:42.544Z,20.61
2018-07-19T03:22:13.935Z,20.59
2018-07-19T03:24:42.988Z,20.59
2018-07-19T03:27:11.814Z,20.59
2018-07-19T03:29:41.294Z,20.61
2018-07-19T03:32:09.939Z,20.48
2018-07-19T03:34:38.625Z,20.42
2018-07-19T03:37:07.266Z,20.42
2018-07-19T03:39:35.894Z,20.42
2018-07-19T03:42:04.556Z,20.41
2018-07-19T03:44:33.455Z,20.41
2018-07-19T03:47:02.109Z,20.39
2018-07-19T03:49:30.742Z,20.38
2018-07-19T03:52:01.657Z,20.25
2018-07-19T03:54:30.984Z,20.25
2018-07-19T03:57:01.613Z,20.20
2018-07-19T03:59:31.152Z,20.20
2018-07-19T04:01:59.851Z,20.23
2018-07-19T04:04:28.487Z,20.26
2018-07-19T04:06:57.157Z,20.27
2018-07-19T04:09:28.399Z,20.27
2018-07-19T04:11:58.400Z,20.25
2018-07-19T04:14:27.671Z,20.28
2018-07-19T04:16:58.345Z,20.28
2018-07-19T04:19:28.948Z,20.28
2018-07-19T04:21:59.600Z,20.24
2018-07-19T04:24:29.846Z,20.27
2018-07-19T04:26:58.642Z,20.21
2018-07-19T04:29:27.928Z,20.19
2018-07-19T04:31:58.034Z,20.21
2018-07-19T04:34:26.691Z,20.19
2018-07-19T04:36:55.366Z,20.20
2018-07-19T04:39:24.009Z,20.25
2018-07-19T04:41:52.881Z,20.30
2018-07-19T04:44:21.727Z,20.31
2018-07-19T04:46:54.484Z,20.32
2018-07-19T04:49:23.552Z,20.34
2018-07-19T04:51:52.209Z,20.39
2018-07-19T04:54:20.952Z,20.41
2018-07-19T04:56:50.203Z,20.42
2018-07-19T04:59:18.801Z,20.43
2018-07-19T05:01:48.097Z,20.46
2018-07-19T05:04:16.720Z,20.47
2018-07-19T05:06:45.404Z,20.52
2018-07-19T05:09:14.457Z,20.53
2018-07-19T05:11:43.362Z,20.52
2018-07-19T05:14:12.155Z,20.55
2018-07-19T05:16:40.784Z,20.60
2018-07-19T05:19:09.478Z,20.65
2018-07-19T05:21:38.180Z,20.66
2018-07-19T05:24:07.221Z,20.70
2018-07-19T05:26:36.126Z,20.77
2018-07-19T05:29:05.118Z,20.81
2018-07-19T05:31:33.789Z,20.83
2018-07-19T05:34:02.826Z,20.86
2018-07-19T05:36:31.790Z,20.91
2018-07-19T05:39:00.788Z,20.95
2018-07-19T05:41:29.427Z,21.01
2018-07-19T05:43:58.027Z,21.06
2018-07-19T05:46:26.950Z,21.11
2018-07-19T05:48:55.741Z,21.13
2018-07-19T05:51:24.630Z,21.13
2018-07-19T05:53:53.469Z,21.15
2018-07-19T05:56:22.179Z,21.18
2018-07-19T05:58:51.798Z,21.23
2018-07-19T06:01:20.495Z,21.23
2018-07-19T06:03:49.710Z,21.29
2018-07-19T06:06:18.902Z,21.37
2018-07-19T06:08:47.529Z,21.41
2018-07-19T06:11:16.182Z,21.46
2018-07-19T06:13:44.819Z,21.51
2018-07-19T06:16:13.808Z,21.46
2018-07-19T06:18:42.712Z,21.50
2018-07-19T06:21:12.269Z,21.51
2018-07-19T06:23:40.941Z,21.55
2018-07-19T06:26:09.633Z,21.57
2018-07-19T06:28:38.516Z,21.65
2018-07-19T06:31:07.168Z,21.73
2018-07-19T06:33:36.713Z,21.80
2018-07-19T06:36:05.937Z,21.79
2018-07-19T06:38:35.215Z,21.92
2018-07-19T06:41:04.621Z,22.01
2018-07-19T06:43:34.786Z,22.15
2018-07-19T06:46:03.457Z,22.29
2018-07-19T06:48:32.157Z,22.46
2018-07-19T06:51:01.202Z,22.51
2018-07-19T06:53:30.423Z,22.56
2018-07-19T06:56:00.300Z,22.49
2018-07-19T06:58:29.327Z,22.43
2018-07-19T07:00:57.965Z,22.36
2018-07-19T07:03:26.685Z,22.32
2018-07-19T07:05:55.834Z,22.45
2018-07-19T07:08:24.539Z,22.50
2018-07-19T07:10:53.191Z,22.52
2018-07-19T07:13:21.975Z,22.50
2018-07-19T07:15:50.624Z,22.52
2018-07-19T07:18:19.838Z,22.48
2018-07-19T07:20:49.957Z,22.55
2018-07-19T07:23:18.651Z,22.67
2018-07-19T07:25:50.786Z,22.63
2018-07-19T07:28:21.123Z,22.73
2018-07-19T07:30:49.802Z,22.73
2018-07-19T07:33:19.544Z,22.77
2018-07-19T07:35:48.869Z,22.82
2018-07-19T07:38:19.066Z,22.88
2018-07-19T07:40:48.365Z,22.98
2018-07-19T07:43:17.003Z,23.11
2018-07-19T07:45:45.694Z,23.23
2018-07-19T07:48:14.384Z,23.29
2018-07-19T07:50:49.750Z,23.41
2018-07-19T07:53:19.260Z,23.45
2018-07-19T07:55:50.004Z,23.41
2018-07-19T07:58:19.088Z,23.43
2018-07-19T08:00:47.721Z,23.38
2018-07-19T08:03:16.431Z,23.33
2018-07-19T08:05:45.119Z,23.24
2018-07-19T08:08:14.156Z,23.26
2018-07-19T08:10:43.462Z,23.24
2018-07-19T08:13:12.540Z,23.21
2018-07-19T08:15:41.259Z,23.18
2018-07-19T08:18:10.246Z,23.19
2018-07-19T08:20:38.862Z,23.22
2018-07-19T08:23:07.844Z,23.31
2018-07-19T08:25:36.481Z,23.52
2018-07-19T08:28:05.911Z,23.74
2018-07-19T08:30:34.646Z,23.74
2018-07-19T08:33:03.384Z,23.72
2018-07-19T08:35:32.289Z,23.68
2018-07-19T08:38:00.936Z,23.69
2018-07-19T08:40:29.596Z,23.60
2018-07-19T08:42:58.596Z,23.54
2018-07-19T08:45:27.537Z,23.42
2018-07-19T08:47:56.551Z,23.34
2018-07-19T08:50:25.210Z,23.32
2018-07-19T08:52:54.222Z,23.35
2018-07-19T08:55:23.228Z,23.32
2018-07-19T08:57:51.935Z,23.26
2018-07-19T09:00:20.699Z,23.22
2018-07-19T09:02:49.690Z,23.14
2018-07-19T09:05:18.344Z,23.21
2018-07-19T09:07:47.075Z,23.16
2018-07-19T09:10:15.825Z,23.16
2018-07-19T09:12:44.897Z,23.10
2018-07-19T09:15:13.661Z,23.01
2018-07-19T09:17:42.722Z,22.98
2018-07-19T09:20:11.703Z,22.91
2018-07-19T09:22:40.866Z,22.91
2018-07-19T09:25:09.899Z,22.90
2018-07-19T09:27:38.782Z,22.97
2018-07-19T09:30:08.052Z,23.00
2018-07-19T09:32:38.234Z,23.02
2018-07-19T09:35:06.866Z,23.04
2018-07-19T09:37:35.526Z,23.06
2018-07-19T09:40:04.260Z,23.13
2018-07-19T09:42:33.043Z,23.16
2018-07-19T09:45:01.737Z,23.23
2018-07-19T09:47:30.389Z,23.22
2018-07-19T09:49:59.040Z,23.22
2018-07-19T09:52:27.982Z,23.22
2018-07-19T09:54:59.157Z,23.22
2018-07-19T09:57:29.178Z,23.25
2018-07-19T09:59:58.189Z,23.33
2018-07-19T10:02:27.003Z,23.36
2018-07-19T10:04:55.957Z,23.46
2018-07-19T10:07:25.028Z,23.49
2018-07-19T10:09:54.054Z,23.55
2018-07-19T10:12:22.684Z,23.61
2018-07-19T10:14:51.277Z,23.57
2018-07-19T10:17:19.973Z,23.58
2018-07-19T10:19:48.890Z,23.57
2018-07-19T10:22:18.176Z,23.56
2018-07-19T10:24:46.841Z,23.58
2018-07-19T10:27:15.621Z,23.62
2018-07-19T10:29:44.642Z,23.54
2018-07-19T10:32:13.339Z,23.50
2018-07-19T10:34:41.977Z,23.51
2018-07-19T10:37:10.609Z,23.48
2018-07-19T10:39:39.953Z,23.44
2018-07-19T10:42:08.789Z,23.48
2018-07-19T10:44:37.669Z,23.51
2018-07-19T10:47:06.383Z,23.54
2018-07-19T10:49:35.068Z,23.54
2018-07-19T10:52:04.047Z,23.55
2018-07-19T10:54:32.682Z,23.67
2018-07-19T10:57:01.596Z,23.78
2018-07-19T10:59:30.878Z,23.84
2018-07-19T11:01:59.552Z,23.95
2018-07-19T11:04:28.523Z,24.00
2018-07-19T11:06:57.582Z,24.07
2018-07-19T11:09:26.585Z,24.15
2018-07-19T11:11:55.190Z,24.28
2018-07-19T11:14:24.196Z,24.42
2018-07-19T11:16:52.942Z,24.56
2018-07-19T11:19:21.917Z,24.70
2018-07-19T11:21:51.110Z,24.78
2018-07-19T11:24:19.954Z,24.84
2018-07-19T11:26:48.607Z,24.69
2018-07-19T11:29:17.519Z,24.58
2018-07-19T11:31:46.591Z,24.52
2018-07-19T11:34:15.751Z,24.54
2018-07-19T11:36:44.364Z,24.47
2018-07-19T11:39:13.337Z,24.43
2018-07-19T11:41:42.548Z,24.27
2018-07-19T11:44:12.269Z,24.20
2018-07-19T11:46:41.132Z,24.15
2018-07-19T11:49:10.087Z,24.13
2018-07-19T11:51:38.773Z,24.13
2018-07-19T11:54:08.317Z,24.22
2018-07-19T11:56:37.353Z,24.27
2018-07-19T11:59:06.407Z,24.35
2018-07-19T12:01:35.488Z,24.53
2018-07-19T12:04:04.405Z,24.67
2018-07-19T12:06:33.015Z,24.78
2018-07-19T12:09:01.906Z,24.96
2018-07-19T12:11:30.678Z,25.11
2018-07-19T12:13:59.441Z,25.30
2018-07-19T12:16:28.477Z,25.43
2018-07-19T12:18:57.356Z,25.60
2018-07-19T12:21:26.650Z,25.72
2018-07-19T12:23:55.241Z,25.82
2018-07-19T12:26:24.258Z,25.80
2018-07-19T12:28:53.480Z,25.91
2018-07-19T12:31:22.486Z,26.06
2018-07-19T12:33:51.130Z,26.21
2018-07-19T12:36:20.430Z,26.31
2018-07-19T12:38:49.522Z,26.45
2018-07-19T12:41:18.138Z,27.00
2018-07-19T12:43:46.876Z,27.56
2018-07-19T12:46:15.505Z,27.80
2018-07-19T12:48:44.381Z,27.84
2018-07-19T12:51:13.011Z,27.60
2018-07-19T12:53:41.653Z,27.38
2018-07-19T12:56:10.225Z,27.00
2018-07-19T12:58:39.344Z,26.70
2018-07-19T13:01:09.189Z,26.35
2018-07-19T13:03:37.859Z,26.07
2018-07-19T13:06:06.528Z,25.67
2018-07-19T13:08:35.188Z,25.47
2018-07-19T13:11:04.099Z,25.30
2018-07-19T13:13:33.300Z,25.32
2018-07-19T13:16:02.004Z,25.31
2018-07-19T13:18:30.941Z,25.21
2018-07-19T13:20:59.986Z,25.35
2018-07-19T13:23:29.570Z,25.65
2018-07-19T13:25:58.317Z,25.87
2018-07-19T13:28:26.972Z,26.09
2018-07-19T13:30:55.838Z,26.90
2018-07-19T13:33:24.845Z,28.15
2018-07-19T13:35:54.176Z,29.45
2018-07-19T13:38:22.791Z,29.53
2018-07-19T13:40:52.645Z,29.27
2018-07-19T13:43:21.567Z,29.54
2018-07-19T13:45:50.589Z,31.45
2018-07-19T13:48:19.541Z,31.55
2018-07-19T13:50:48.213Z,31.39
2018-07-19T13:53:38.401Z,31.68
2018-07-19T13:56:08.056Z,32.32
2018-07-19T13:58:37.838Z,33.57
2018-07-19T14:01:06.861Z,35.91
2018-07-19T14:03:35.668Z,38.39
2018-07-19T14:06:04.653Z,39.78
2018-07-19T14:08:33.287Z,38.77
2018-07-19T14:11:02.249Z,38.87
2018-07-19T14:13:31.227Z,40.43
2018-07-19T14:16:00.594Z,41.21
2018-07-19T14:18:29.786Z,40.97
2018-07-19T14:20:58.485Z,41.25
2018-07-19T14:23:28.077Z,41.33
2018-07-19T14:25:56.788Z,40.72
2018-07-19T14:28:25.403Z,39.92
2018-07-19T14:30:54.402Z,38.71
2018-07-19T14:33:23.012Z,37.37
2018-07-19T14:35:51.939Z,35.82
2018-07-19T14:38:20.552Z,34.78
2018-07-19T14:40:49.539Z,33.61
2018-07-19T14:43:18.253Z,32.93
2018-07-19T14:45:46.886Z,32.51
2018-07-19T14:48:15.505Z,32.17
2018-07-19T14:50:44.149Z,31.65
2018-07-19T14:53:13.149Z,30.98
2018-07-19T14:55:42.722Z,30.69
2018-07-19T14:58:12.087Z,30.26
2018-07-19T15:00:41.192Z,29.80
2018-07-19T15:03:10.123Z,29.42
2018-07-19T15:05:38.826Z,29.28
2018-07-19T15:08:09.884Z,29.09
2018-07-19T15:10:38.892Z,29.01
2018-07-19T15:13:07.592Z,28.83
2018-07-19T15:15:36.452Z,28.61
2018-07-19T15:18:05.190Z,28.42
2018-07-19T15:20:33.951Z,28.32
2018-07-19T15:23:03.013Z,28.23
2018-07-19T15:25:31.991Z,28.15
2018-07-19T15:28:00.629Z,28.03
2018-07-19T15:30:29.410Z,27.94
2018-07-19T15:32:58.098Z,27.97
2018-07-19T15:35:26.760Z,27.98
2018-07-19T15:37:55.743Z,28.03
2018-07-19T15:40:24.356Z,28.08
2018-07-19T15:42:53.582Z,28.18
2018-07-19T15:45:23.696Z,28.07
2018-07-19T15:47:53.271Z,28.12
2018-07-19T15:50:21.898Z,28.06
2018-07-19T15:52:50.592Z,27.97
2018-07-19T15:55:19.281Z,27.91
2018-07-19T15:57:48.233Z,27.87
2018-07-19T16:00:17.539Z,27.85
2018-07-19T16:02:46.432Z,27.85
2018-07-19T16:05:15.406Z,27.75
2018-07-19T16:07:44.110Z,27.65
2018-07-19T16:10:13.295Z,27.62
2018-07-19T16:12:43.389Z,27.55
2018-07-19T16:15:12.318Z,27.41
2018-07-19T16:17:41.002Z,27.33
2018-07-19T16:20:10.083Z,27.13
2018-07-19T16:22:39.230Z,27.00
2018-07-19T16:25:07.985Z,26.97
2018-07-19T16:27:36.928Z,26.90
2018-07-19T16:30:06.178Z,26.98
2018-07-19T16:32:34.827Z,26.85
2018-07-19T16:35:03.553Z,26.76
2018-07-19T16:37:32.171Z,26.72
2018-07-19T16:40:00.757Z,26.68
2018-07-19T16:42:29.480Z,26.65
2018-07-19T16:44:58.212Z,26.62
2018-07-19T16:47:26.925Z,26.60
2018-07-19T16:49:55.902Z,26.47
2018-07-19T16:52:24.564Z,26.45
2018-07-19T16:54:53.212Z,26.47
2018-07-19T16:57:22.140Z,26.40
2018-07-19T16:59:51.300Z,26.26
2018-07-19T17:02:20.518Z,26.22
2018-07-19T17:04:49.687Z,26.13
2018-07-19T17:07:18.554Z,26.07
2018-07-19T17:09:47.273Z,26.06
2018-07-19T17:12:15.988Z,26.01
2018-07-19T17:14:44.686Z,26.04
2018-07-19T17:17:13.637Z,25.95
2018-07-19T17:19:42.425Z,25.89
2018-07-19T17:22:11.456Z,25.85
2018-07-19T17:24:40.161Z,25.84
2018-07-19T17:27:09.226Z,25.73
2018-07-19T17:29:38.102Z,25.66
2018-07-19T17:32:08.247Z,25.64
2018-07-19T17:34:37.342Z,25.59
2018-07-19T17:37:06.910Z,25.57
2018-07-19T17:39:35.655Z,25.59
2018-07-19T17:42:05.236Z,25.50
2018-07-19T17:44:34.167Z,25.43
2018-07-19T17:47:02.876Z,25.35
2018-07-19T17:49:31.642Z,25.31
2018-07-19T17:52:00.905Z,25.30
2018-07-19T17:54:29.528Z,25.30
2018-07-19T17:56:58.946Z,25.30
2018-07-19T17:59:27.973Z,25.27
2018-07-19T18:01:57.069Z,25.20
2018-07-19T18:04:25.702Z,25.12
2018-07-19T18:06:54.504Z,25.12
2018-07-19T18:09:23.262Z,25.11
2018-07-19T18:11:51.906Z,25.09
2018-07-19T18:14:20.766Z,25.04
2018-07-19T18:16:50.892Z,25.03
2018-07-19T18:19:21.040Z,24.97
2018-07-19T18:21:49.728Z,24.97
2018-07-19T18:24:18.704Z,24.87
2018-07-19T18:26:47.473Z,24.83
2018-07-19T18:29:16.186Z,24.80
2018-07-19T18:31:45.161Z,24.78
2018-07-19T18:34:13.843Z,24.73
2018-07-19T18:36:42.502Z,24.70
2018-07-19T18:39:12.785Z,24.69
2018-07-19T18:41:41.591Z,24.66
2018-07-19T18:44:10.564Z,24.68
2018-07-19T18:46:39.860Z,24.63
2018-07-19T18:49:08.647Z,24.56
2018-07-19T18:51:37.276Z,24.51
2018-07-19T18:54:06.010Z,24.48
2018-07-19T18:56:36.442Z,24.49
2018-07-19T18:59:10.009Z,24.41
2018-07-19T19:01:38.754Z,24.41
2018-07-19T19:04:07.441Z,24.36
2018-07-19T19:06:36.480Z,24.31
2018-07-19T19:09:09.629Z,24.30
2018-07-19T19:11:38.292Z,24.25
2018-07-19T19:14:07.826Z,24.20
2018-07-19T19:16:36.400Z,24.16
2018-07-19T19:19:05.827Z,24.13
2018-07-19T19:21:34.809Z,24.11
2018-07-19T19:24:03.561Z,24.10
2018-07-19T19:26:32.597Z,24.08
2018-07-19T19:29:01.507Z,24.05
2018-07-19T19:31:31.869Z,24.02
2018-07-19T19:34:00.871Z,23.99
2018-07-19T19:36:29.925Z,23.96
2018-07-19T19:38:59.297Z,23.89
2018-07-19T19:41:27.965Z,23.88
2018-07-19T19:43:56.846Z,23.85
2018-07-19T19:46:25.594Z,23.82
2018-07-19T19:48:54.215Z,23.83
2018-07-19T19:51:23.542Z,23.78
2018-07-19T19:53:53.991Z,23.73
2018-07-19T19:56:22.797Z,23.71
2018-07-19T19:58:51.782Z,23.68
2018-07-19T20:01:20.483Z,23.67
2018-07-19T20:03:49.454Z,23.66
2018-07-19T20:06:18.211Z,23.60
2018-07-19T20:08:52.739Z,23.55
2018-07-19T20:11:21.507Z,23.48
2018-07-19T20:13:50.360Z,23.35
2018-07-19T20:16:19.076Z,23.28
2018-07-19T20:18:48.398Z,23.22
2018-07-19T20:21:23.069Z,23.25
2018-07-19T20:23:52.462Z,23.25
2018-07-19T20:26:21.326Z,23.22
2018-07-19T20:28:50.736Z,23.21
2018-07-19T20:31:19.327Z,23.17
2018-07-19T20:33:48.041Z,23.15
2018-07-19T20:36:17.169Z,23.14
2018-07-19T20:38:46.600Z,23.16
2018-07-19T20:41:16.083Z,23.14
2018-07-19T20:43:45.415Z,23.03
2018-07-19T20:46:20.345Z,22.96
2018-07-19T20:48:49.301Z,22.86
2018-07-19T20:51:18.842Z,22.84
2018-07-19T20:53:47.497Z,22.78
2018-07-19T20:56:16.263Z,22.71
2018-07-19T20:58:45.072Z,22.61
2018-07-19T21:01:14.072Z,22.59
2018-07-19T21:03:43.900Z,22.55
2018-07-19T21:06:13.028Z,22.46
2018-07-19T21:08:42.888Z,22.41
2018-07-19T21:11:11.802Z,22.38
2018-07-19T21:13:42.103Z,22.31
2018-07-19T21:16:11.832Z,22.22
2018-07-19T21:18:41.648Z,22.15
2018-07-19T21:21:11.481Z,22.09
2018-07-19T21:23:40.486Z,22.14
2018-07-19T21:26:09.200Z,22.14
2018-07-19T21:28:39.797Z,22.15
2018-07-19T21:31:08.760Z,22.15
2018-07-19T21:33:38.322Z,22.18
2018-07-19T21:36:06.951Z,22.15
2018-07-19T21:38:35.828Z,22.14
2018-07-19T21:41:05.076Z,22.15
2018-07-19T21:43:35.104Z,22.14
2018-07-19T21:46:04.264Z,22.12
2018-07-19T21:48:33.673Z,22.08
2018-07-19T21:51:02.600Z,22.00
2018-07-19T21:53:31.382Z,21.99
2018-07-19T21:56:00.325Z,21.92
2018-07-19T21:58:29.674Z,21.91
2018-07-19T22:01:03.494Z,21.89
2018-07-19T22:03:32.857Z,21.80
2018-07-19T22:06:01.821Z,21.75
2018-07-19T22:08:30.884Z,21.71
2018-07-19T22:11:00.799Z,21.66
2018-07-19T22:13:29.965Z,21.61
2018-07-19T22:15:59.056Z,21.49
2018-07-19T22:18:27.701Z,21.48
2018-07-19T22:20:56.396Z,21.46
2018-07-19T22:23:25.078Z,21.48
2018-07-19T22:25:54.028Z,21.52
2018-07-19T22:28:23.546Z,21.52
2018-07-19T22:30:52.597Z,21.46
2018-07-19T22:33:22.045Z,21.42
2018-07-19T22:35:50.947Z,21.36
2018-07-19T22:38:20.199Z,21.26
2018-07-19T22:40:49.083Z,21.18
2018-07-19T22:43:18.636Z,21.11
2018-07-19T22:45:47.486Z,21.12
2018-07-19T22:48:16.472Z,21.11
2018-07-19T22:50:45.422Z,21.13
2018-07-19T22:53:14.126Z,21.16
2018-07-19T22:55:42.716Z,21.21
2018-07-19T22:58:11.689Z,21.24
2018-07-19T23:00:40.428Z,21.25
2018-07-19T23:03:09.678Z,21.25
2018-07-19T23:05:38.662Z,21.24
2018-07-19T23:08:07.337Z,21.16
2018-07-19T23:10:36.038Z,21.13
2018-07-19T23:13:04.745Z,21.11
2018-07-19T23:15:33.383Z,21.13
2018-07-19T23:18:02.317Z,21.14
2018-07-19T23:20:31.062Z,21.12
2018-07-19T23:23:00.103Z,21.05
2018-07-19T23:25:28.991Z,21.02
2018-07-19T23:27:57.999Z,21.03
2018-07-19T23:30:29.733Z,21.04
2018-07-19T23:32:58.414Z,21.02
2018-07-19T23:36:30.129Z,21.04
2018-07-19T23:39:07.421Z,21.03
2018-07-19T23:41:46.449Z,21.00
2018-07-19T23:44:19.558Z,20.98
2018-07-19T23:46:58.471Z,20.96
2018-07-19T23:49:27.374Z,20.95
2018-07-19T23:51:56.273Z,20.92
2018-07-19T23:54:24.870Z,20.89
2018-07-19T23:56:53.495Z,20.85
2018-07-19T23:59:22.458Z,20.78
